createdAt,value
2023-04-24T00:02:15.662Z,1.37
2023-04-24T00:04:45.909Z,1.20
2023-04-24T00:07:17.800Z,1.33
2023-04-24T00:09:45.792Z,1.37
2023-04-24T00:12:13.161Z,1.33
2023-04-24T00:14:40.620Z,1.33
2023-04-24T00:17:07.963Z,1.40
2023-04-24T00:19:35.450Z,1.30
2023-04-24T00:22:03.856Z,1.30
2023-04-24T00:24:31.137Z,1.40
2023-04-24T00:26:58.439Z,1.33
2023-04-24T00:29:25.738Z,1.40
2023-04-24T00:31:53.208Z,1.33
2023-04-24T00:34:20.645Z,1.30
2023-04-24T00:36:50.047Z,1.40
2023-04-24T00:39:17.407Z,1.30
2023-04-24T00:41:45.104Z,1.40
2023-04-24T00:44:12.329Z,1.40
2023-04-24T00:46:40.301Z,1.30
2023-04-24T00:49:07.649Z,1.30
2023-04-24T00:51:35.550Z,1.60
2023-04-24T00:54:02.857Z,2.07
2023-04-24T00:56:30.240Z,1.30
2023-04-24T00:58:57.570Z,1.57
2023-04-24T01:01:24.914Z,1.40
2023-04-24T01:03:53.477Z,1.67
2023-04-24T01:06:21.456Z,1.50
2023-04-24T01:08:49.398Z,1.67
2023-04-24T01:11:16.621Z,1.30
2023-04-24T01:13:44.022Z,1.50
2023-04-24T01:16:11.338Z,1.30
2023-04-24T01:18:39.305Z,1.30
2023-04-24T01:21:07.242Z,1.57
2023-04-24T01:23:34.468Z,1.37
2023-04-24T01:26:01.835Z,1.50
2023-04-24T01:28:29.105Z,1.17
2023-04-24T01:30:56.365Z,1.30
2023-04-24T01:33:23.803Z,1.60
2023-04-24T01:35:51.459Z,1.40
2023-04-24T01:38:18.701Z,1.33
2023-04-24T01:40:46.146Z,1.27
2023-04-24T01:43:14.008Z,1.33
2023-04-24T01:45:41.369Z,1.00
2023-04-24T01:48:08.602Z,1.20
2023-04-24T01:50:36.217Z,1.20
2023-04-24T01:53:03.435Z,1.20
2023-04-24T01:55:30.726Z,1.13
2023-04-24T01:57:58.349Z,1.50
2023-04-24T02:00:28.810Z,1.20
2023-04-24T02:02:56.148Z,1.20
2023-04-24T02:05:23.519Z,1.20
2023-04-24T02:07:50.691Z,1.10
2023-04-24T02:10:17.984Z,1.20
2023-04-24T02:12:45.444Z,1.00
2023-04-24T02:15:13.293Z,1.07
2023-04-24T02:17:43.524Z,1.20
2023-04-24T02:20:11.059Z,1.20
2023-04-24T02:22:40.091Z,1.20
2023-04-24T02:25:07.605Z,1.10
2023-04-24T02:27:36.095Z,1.73
2023-04-24T02:30:04.211Z,1.20
2023-04-24T02:32:31.934Z,1.30
2023-04-24T02:34:59.197Z,1.00
2023-04-24T02:37:26.730Z,1.10
2023-04-24T02:39:53.982Z,1.20
2023-04-24T02:42:21.165Z,1.30
2023-04-24T02:44:48.459Z,1.20
2023-04-24T02:47:15.621Z,1.20
2023-04-24T02:49:43.306Z,1.20
2023-04-24T02:52:11.846Z,1.30
2023-04-24T02:54:39.313Z,1.40
2023-04-24T02:57:07.148Z,1.20
2023-04-24T02:59:34.418Z,1.40
2023-04-24T03:02:01.761Z,1.30
2023-04-24T03:04:29.190Z,1.40
2023-04-24T03:06:56.433Z,1.20
2023-04-24T03:09:23.914Z,1.40
2023-04-24T03:11:51.209Z,1.40
2023-04-24T03:14:18.647Z,1.33
2023-04-24T03:16:46.081Z,1.23
2023-04-24T03:19:13.829Z,1.60
2023-04-24T03:21:41.905Z,1.20
2023-04-24T03:24:11.921Z,1.37
2023-04-24T03:26:39.135Z,1.40
2023-04-24T03:29:06.339Z,1.40
2023-04-24T03:31:33.540Z,1.50
2023-04-24T03:34:00.807Z,1.30
2023-04-24T03:36:28.780Z,1.47
2023-04-24T03:38:55.947Z,1.33
2023-04-24T03:41:23.936Z,1.50
2023-04-24T03:43:51.130Z,1.37
2023-04-24T03:46:18.527Z,1.57
2023-04-24T03:48:45.828Z,1.60
2023-04-24T03:51:13.115Z,1.60
2023-04-24T03:53:43.125Z,1.60
2023-04-24T03:56:10.319Z,1.70
2023-04-24T03:58:37.688Z,1.60
2023-04-24T04:01:04.852Z,1.50
2023-04-24T04:03:32.200Z,1.50
2023-04-24T04:05:59.877Z,1.80
2023-04-24T04:08:27.321Z,1.80
2023-04-24T04:10:54.646Z,1.67
2023-04-24T04:13:21.849Z,1.70
2023-04-24T04:15:49.051Z,1.80
2023-04-24T04:18:17.296Z,1.50
2023-04-24T04:20:44.458Z,1.70
2023-04-24T04:23:11.652Z,1.73
2023-04-24T04:25:42.120Z,1.70
2023-04-24T04:28:09.284Z,1.60
2023-04-24T04:30:39.315Z,1.70
2023-04-24T04:33:06.609Z,1.90
2023-04-24T04:35:33.874Z,1.70
2023-04-24T04:38:02.428Z,1.60
2023-04-24T04:40:31.202Z,1.60
2023-04-24T04:42:59.368Z,1.90
2023-04-24T04:45:28.729Z,1.90
2023-04-24T04:47:56.186Z,1.83
2023-04-24T04:50:24.136Z,1.70
2023-04-24T04:52:51.424Z,1.90
2023-04-24T04:55:19.383Z,1.83
2023-04-24T04:57:47.019Z,1.60
2023-04-24T05:00:14.817Z,1.53
2023-04-24T05:02:42.169Z,1.50
2023-04-24T05:05:09.961Z,1.60
2023-04-24T05:07:37.361Z,1.33
2023-04-24T05:10:04.829Z,1.87
2023-04-24T05:12:32.172Z,1.53
2023-04-24T05:14:59.690Z,1.60
2023-04-24T05:17:27.095Z,2.10
2023-04-24T05:19:54.368Z,1.50
2023-04-24T05:22:22.368Z,1.97
2023-04-24T05:24:49.540Z,1.37
2023-04-24T05:27:16.945Z,1.70
2023-04-24T05:29:44.816Z,1.70
2023-04-24T05:32:12.202Z,2.10
2023-04-24T05:34:39.433Z,2.20
2023-04-24T05:37:09.249Z,2.33
2023-04-24T05:39:36.764Z,2.20
2023-04-24T05:42:05.541Z,2.07
2023-04-24T05:44:32.813Z,2.03
2023-04-24T05:47:02.389Z,2.50
2023-04-24T05:49:29.684Z,2.17
2023-04-24T05:51:57.058Z,2.37
2023-04-24T05:54:24.562Z,2.63
2023-04-24T05:56:52.030Z,2.80
2023-04-24T05:59:22.376Z,2.13
2023-04-24T06:01:49.568Z,2.00
2023-04-24T06:04:17.149Z,2.40
2023-04-24T06:06:44.527Z,2.40
2023-04-24T06:09:11.854Z,2.60
2023-04-24T06:11:39.601Z,2.70
2023-04-24T06:14:06.741Z,2.33
2023-04-24T06:16:33.996Z,2.23
2023-04-24T06:19:01.315Z,2.33
2023-04-24T06:21:28.684Z,2.30
2023-04-24T06:23:57.119Z,2.53
2023-04-24T06:26:26.002Z,2.40
2023-04-24T06:28:54.854Z,2.43
2023-04-24T06:31:22.310Z,2.40
2023-04-24T06:33:51.028Z,2.57
2023-04-24T06:36:18.807Z,2.50
2023-04-24T06:38:46.565Z,2.90
2023-04-24T06:41:14.041Z,2.47
2023-04-24T06:43:41.459Z,2.90
2023-04-24T06:46:08.675Z,2.30
2023-04-24T06:48:35.938Z,2.53
2023-04-24T06:51:03.345Z,2.63
2023-04-24T06:53:30.651Z,3.07
2023-04-24T06:55:57.968Z,2.87
2023-04-24T06:58:26.295Z,2.80
2023-04-24T07:00:53.618Z,4.17
2023-04-24T07:03:21.010Z,3.07
2023-04-24T07:05:49.127Z,3.30
2023-04-24T07:08:18.297Z,3.10
2023-04-24T07:10:46.366Z,2.57
2023-04-24T07:13:13.855Z,3.70
2023-04-24T07:15:42.121Z,3.00
2023-04-24T07:18:09.581Z,2.77
2023-04-24T07:20:36.881Z,2.77
2023-04-24T07:23:04.150Z,2.93
2023-04-24T07:25:32.642Z,2.80
2023-04-24T07:28:00.159Z,2.27
2023-04-24T07:30:30.193Z,2.50
2023-04-24T07:32:57.453Z,2.53
2023-04-24T07:35:27.251Z,2.20
2023-04-24T07:37:54.965Z,2.10
2023-04-24T07:40:23.118Z,2.13
2023-04-24T07:42:50.357Z,1.90
2023-04-24T07:45:17.669Z,2.13
2023-04-24T07:47:46.553Z,2.00
2023-04-24T07:50:14.400Z,2.10
2023-04-24T07:52:41.653Z,1.97
2023-04-24T07:55:09.686Z,2.20
2023-04-24T07:57:36.891Z,2.10
2023-04-24T08:00:05.115Z,1.90
2023-04-24T08:02:32.664Z,2.20
2023-04-24T08:05:01.781Z,2.00
2023-04-24T08:07:29.135Z,2.10
2023-04-24T08:09:56.365Z,2.30
2023-04-24T08:12:23.931Z,2.00
2023-04-24T08:14:51.149Z,2.30
2023-04-24T08:17:18.570Z,2.30
2023-04-24T08:19:49.271Z,2.43
2023-04-24T08:22:17.030Z,2.40
2023-04-24T08:24:44.949Z,2.43
2023-04-24T08:27:12.132Z,2.30
2023-04-24T08:29:39.601Z,2.13
2023-04-24T08:32:07.799Z,2.10
2023-04-24T08:34:35.366Z,2.50
2023-04-24T08:37:02.759Z,2.30
2023-04-24T08:39:31.638Z,2.53
2023-04-24T08:42:06.247Z,2.47
2023-04-24T08:44:34.656Z,2.57
2023-04-24T08:47:03.468Z,2.10
2023-04-24T08:49:30.954Z,2.43
2023-04-24T08:51:58.252Z,2.40
2023-04-24T08:54:26.805Z,2.13
2023-04-24T08:56:55.775Z,2.17
2023-04-24T08:59:23.770Z,2.17
2023-04-24T09:01:54.510Z,2.00
2023-04-24T09:04:23.147Z,2.37
2023-04-24T09:06:51.095Z,2.40
2023-04-24T09:09:21.575Z,2.10
2023-04-24T09:11:48.885Z,2.20
2023-04-24T09:14:16.627Z,2.30
2023-04-24T09:16:44.285Z,2.63
2023-04-24T09:19:11.504Z,2.30
2023-04-24T09:21:38.815Z,2.03
2023-04-24T09:24:08.253Z,2.00
2023-04-24T09:26:38.514Z,2.33
2023-04-24T09:29:06.408Z,2.00
2023-04-24T09:31:33.773Z,2.20
2023-04-24T09:34:08.148Z,2.10
2023-04-24T09:36:45.287Z,2.30
2023-04-24T09:39:17.419Z,2.10
2023-04-24T09:41:51.800Z,2.00
2023-04-24T09:44:19.074Z,2.07
2023-04-24T09:46:47.449Z,2.30
2023-04-24T09:49:16.467Z,2.50
2023-04-24T09:51:43.864Z,2.20
2023-04-24T09:54:22.501Z,2.30
2023-04-24T09:56:51.435Z,2.47
2023-04-24T09:59:21.791Z,2.27
2023-04-24T10:01:50.458Z,2.07
2023-04-24T10:04:24.633Z,2.33
2023-04-24T10:06:52.433Z,2.10
2023-04-24T10:09:20.681Z,2.20
2023-04-24T10:11:48.706Z,1.80
2023-04-24T10:14:17.289Z,2.20
2023-04-24T10:16:45.073Z,1.90
2023-04-24T10:19:14.165Z,2.20
2023-04-24T10:21:43.662Z,2.43
2023-04-24T10:24:11.210Z,3.30
2023-04-24T10:26:38.543Z,3.13
2023-04-24T10:29:10.874Z,2.40
2023-04-24T10:31:39.307Z,2.50
2023-04-24T10:34:07.616Z,3.70
2023-04-24T10:36:36.175Z,3.10
2023-04-24T10:39:04.600Z,2.60
2023-04-24T10:41:32.330Z,2.57
2023-04-24T10:44:07.278Z,2.53
2023-04-24T10:46:34.626Z,3.03
2023-04-24T10:49:05.509Z,2.97
2023-04-24T10:51:49.683Z,3.30
2023-04-24T10:54:31.422Z,3.00
2023-04-24T10:57:17.453Z,2.80
2023-04-24T10:59:45.017Z,2.57
2023-04-24T11:02:12.336Z,2.57
2023-04-24T11:04:42.310Z,2.80
2023-04-24T11:07:10.940Z,2.57
2023-04-24T11:09:38.184Z,2.27
2023-04-24T11:12:13.859Z,2.63
2023-04-24T11:15:00.526Z,2.90
2023-04-24T11:17:39.216Z,2.43
2023-04-24T11:20:22.812Z,2.17
2023-04-24T11:22:59.036Z,2.10
2023-04-24T11:25:26.838Z,1.70
2023-04-24T11:28:06.184Z,1.73
2023-04-24T11:30:37.506Z,1.60
2023-04-24T11:33:06.120Z,1.87
2023-04-24T11:35:38.907Z,1.80
2023-04-24T11:40:36.718Z,1.87
2023-04-24T11:43:07.671Z,1.80
2023-04-24T11:45:35.398Z,4.20
2023-04-24T11:48:04.735Z,2.00
2023-04-24T11:50:32.266Z,1.60
2023-04-24T11:53:01.407Z,1.50
2023-04-24T11:55:29.437Z,1.70
2023-04-24T11:57:57.793Z,1.70
2023-04-24T12:00:29.522Z,2.07
2023-04-24T12:03:26.890Z,1.37
2023-04-24T12:05:54.452Z,1.50
2023-04-24T12:08:30.882Z,1.70
2023-04-24T12:10:58.658Z,1.60
2023-04-24T12:13:27.238Z,1.30
2023-04-24T12:15:54.906Z,1.27
2023-04-24T12:18:30.390Z,1.20
2023-04-24T12:21:01.372Z,1.10
2023-04-24T12:23:36.635Z,1.30
2023-04-24T12:26:06.896Z,1.43
2023-04-24T12:28:38.334Z,1.43
2023-04-24T12:31:05.763Z,1.77
2023-04-24T12:33:37.486Z,2.03
2023-04-24T12:36:06.368Z,1.40
2023-04-24T12:38:41.212Z,1.50
2023-04-24T12:41:08.507Z,1.30
2023-04-24T12:43:36.203Z,1.43
2023-04-24T12:46:03.872Z,1.70
2023-04-24T12:48:31.901Z,1.40
2023-04-24T12:51:02.388Z,1.50
2023-04-24T12:53:32.855Z,1.50
2023-04-24T12:56:00.083Z,1.43
2023-04-24T12:58:27.383Z,1.33
2023-04-24T13:00:55.489Z,1.37
2023-04-24T13:03:23.732Z,1.40
2023-04-24T13:05:51.222Z,1.63
2023-04-24T13:08:18.489Z,1.30
2023-04-24T13:10:45.693Z,1.50
2023-04-24T13:13:12.989Z,1.60
2023-04-24T13:15:40.265Z,7.03
2023-04-24T13:18:07.490Z,1.80
2023-04-24T13:20:36.579Z,1.70
2023-04-24T13:23:04.298Z,1.77
2023-04-24T13:25:32.661Z,1.67
2023-04-24T13:28:00.030Z,1.63
2023-04-24T13:30:29.325Z,1.60
2023-04-24T13:32:57.255Z,1.90
2023-04-24T13:35:24.591Z,1.70
2023-04-24T13:37:52.066Z,1.53
2023-04-24T13:40:19.557Z,1.60
2023-04-24T13:42:47.535Z,1.43
2023-04-24T13:45:24.807Z,1.60
2023-04-24T13:47:52.911Z,1.37
2023-04-24T13:50:20.669Z,1.60
2023-04-24T13:52:48.327Z,1.60
2023-04-24T13:55:15.807Z,1.33
2023-04-24T13:57:43.057Z,1.90
2023-04-24T14:00:11.830Z,1.63
2023-04-24T14:02:39.553Z,1.50
2023-04-24T14:05:07.557Z,1.30
2023-04-24T14:07:34.843Z,1.50
2023-04-24T14:10:02.056Z,1.40
2023-04-24T14:12:29.568Z,1.50
2023-04-24T14:14:56.760Z,1.40
2023-04-24T14:17:24.238Z,1.27
2023-04-24T14:19:53.010Z,1.63
2023-04-24T14:22:20.234Z,1.40
2023-04-24T14:24:47.406Z,1.27
2023-04-24T14:27:14.671Z,1.47
2023-04-24T14:29:42.048Z,1.60
2023-04-24T14:32:10.027Z,2.13
2023-04-24T14:34:37.268Z,1.70
2023-04-24T14:37:04.736Z,1.60
2023-04-24T14:39:31.953Z,1.67
2023-04-24T14:41:59.150Z,1.43
2023-04-24T14:44:26.384Z,1.27
2023-04-24T14:46:54.262Z,1.50
2023-04-24T14:49:21.855Z,1.30
2023-04-24T14:51:49.049Z,1.20
2023-04-24T14:54:16.224Z,1.30
2023-04-24T14:56:45.357Z,1.50
2023-04-24T14:59:12.776Z,1.63
2023-04-24T15:01:40.144Z,1.30
2023-04-24T15:04:07.468Z,1.60
2023-04-24T15:06:34.844Z,1.40
2023-04-24T15:09:04.396Z,1.70
2023-04-24T15:11:31.681Z,1.87
2023-04-24T15:13:59.031Z,2.10
2023-04-24T15:16:28.410Z,1.80
2023-04-24T15:18:55.872Z,4.33
2023-04-24T15:21:23.282Z,3.60
2023-04-24T15:23:51.088Z,1.67
2023-04-24T15:26:18.824Z,2.20
2023-04-24T15:28:47.817Z,1.47
2023-04-24T15:31:15.152Z,2.50
2023-04-24T15:33:42.706Z,1.47
2023-04-24T15:36:10.061Z,1.73
2023-04-24T15:38:37.571Z,2.17
2023-04-24T15:41:04.891Z,1.50
2023-04-24T15:43:35.132Z,1.40
2023-04-24T15:46:03.014Z,1.67
2023-04-24T15:48:30.968Z,1.50
2023-04-24T15:50:58.200Z,1.60
2023-04-24T15:53:25.728Z,1.37
2023-04-24T15:55:53.833Z,1.60
2023-04-24T15:58:21.818Z,5.57
2023-04-24T16:00:49.206Z,1.90
2023-04-24T16:03:16.710Z,1.50
2023-04-24T16:05:44.389Z,1.70
2023-04-24T16:08:11.693Z,1.70
2023-04-24T16:10:38.964Z,1.70
2023-04-24T16:13:06.455Z,1.43
2023-04-24T16:15:34.458Z,1.57
2023-04-24T16:18:01.710Z,1.87
2023-04-24T16:20:29.081Z,1.70
2023-04-24T16:22:56.757Z,1.60
2023-04-24T16:25:25.324Z,1.70
2023-04-24T16:27:52.835Z,1.47
2023-04-24T16:30:20.265Z,1.60
2023-04-24T16:32:47.493Z,1.43
2023-04-24T16:35:15.126Z,1.50
2023-04-24T16:37:42.591Z,1.90
2023-04-24T16:40:11.059Z,2.13
2023-04-24T16:42:38.864Z,2.07
2023-04-24T16:45:06.854Z,1.67
2023-04-24T16:47:34.193Z,1.80
2023-04-24T16:50:03.046Z,1.57
2023-04-24T16:52:30.402Z,1.53
2023-04-24T16:54:57.641Z,1.70
2023-04-24T16:57:25.013Z,1.87
2023-04-24T16:59:52.275Z,1.60
2023-04-24T17:02:19.585Z,1.50
2023-04-24T17:04:48.213Z,1.63
2023-04-24T17:07:15.685Z,10.77
2023-04-24T17:09:45.573Z,4.87
2023-04-24T17:12:12.893Z,18.00
2023-04-24T17:14:43.030Z,13.03
2023-04-24T17:17:10.394Z,2.60
2023-04-24T17:19:37.642Z,3.90
2023-04-24T17:22:06.356Z,13.93
2023-04-24T17:24:33.873Z,8.10
2023-04-24T17:27:04.874Z,2.17
2023-04-24T17:29:39.274Z,1.80
2023-04-24T17:32:06.502Z,1.80
2023-04-24T17:34:33.997Z,1.53
2023-04-24T17:37:02.220Z,1.97
2023-04-24T17:39:31.576Z,1.87
2023-04-24T17:41:58.856Z,2.20
2023-04-24T17:44:26.094Z,1.70
2023-04-24T17:46:53.423Z,1.70
2023-04-24T17:49:20.602Z,1.60
2023-04-24T17:51:47.802Z,1.70
2023-04-24T17:54:17.010Z,1.80
2023-04-24T17:56:45.819Z,2.30
2023-04-24T17:59:12.993Z,1.73
2023-04-24T18:01:40.423Z,1.73
2023-04-24T18:04:08.075Z,2.07
2023-04-24T18:06:35.423Z,1.70
2023-04-24T18:09:03.386Z,1.70
2023-04-24T18:11:30.788Z,1.70
2023-04-24T18:13:57.944Z,1.87
2023-04-24T18:16:25.969Z,1.60
2023-04-24T18:18:54.138Z,1.50
2023-04-24T18:21:21.606Z,1.70
2023-04-24T18:23:49.044Z,1.40
2023-04-24T18:26:17.382Z,1.50
2023-04-24T18:28:45.008Z,1.70
2023-04-24T18:31:12.547Z,1.80
2023-04-24T18:33:39.907Z,1.83
2023-04-24T18:36:07.189Z,1.80
2023-04-24T18:38:34.485Z,1.77
2023-04-24T18:41:01.734Z,1.83
2023-04-24T18:43:29.028Z,3.37
2023-04-24T18:45:56.343Z,1.70
2023-04-24T18:48:23.794Z,1.53
2023-04-24T18:50:51.452Z,2.00
2023-04-24T18:53:18.759Z,1.90
2023-04-24T18:55:46.058Z,1.90
2023-04-24T18:58:13.444Z,1.87
2023-04-24T19:00:40.907Z,2.00
2023-04-24T19:03:09.359Z,2.17
2023-04-24T19:05:36.702Z,2.40
2023-04-24T19:08:03.917Z,2.17
2023-04-24T19:10:33.334Z,2.00
2023-04-24T19:13:01.929Z,2.60
2023-04-24T19:15:29.961Z,2.30
2023-04-24T19:17:57.658Z,2.27
2023-04-24T19:20:26.061Z,2.30
2023-04-24T19:22:53.327Z,2.40
2023-04-24T19:25:20.841Z,2.27
2023-04-24T19:27:48.044Z,3.20
2023-04-24T19:30:15.442Z,2.37
2023-04-24T19:32:42.803Z,2.50
2023-04-24T19:35:10.303Z,2.20
2023-04-24T19:37:37.675Z,2.47
2023-04-24T19:40:05.448Z,2.30
2023-04-24T19:42:43.086Z,2.20
2023-04-24T19:45:12.615Z,2.30
2023-04-24T19:47:40.295Z,2.47
2023-04-24T19:50:08.132Z,2.47
2023-04-24T19:52:35.409Z,2.47
2023-04-24T19:55:02.648Z,2.47
2023-04-24T19:57:29.912Z,2.50
2023-04-24T19:59:57.249Z,2.90
2023-04-24T20:02:24.634Z,5.40
2023-04-24T20:04:52.286Z,2.90
2023-04-24T20:07:19.941Z,2.90
2023-04-24T20:09:47.366Z,2.50
2023-04-24T20:12:14.567Z,2.90
2023-04-24T20:14:41.809Z,2.60
2023-04-24T20:17:09.070Z,2.83
2023-04-24T20:19:36.429Z,2.80
2023-04-24T20:22:03.657Z,2.40
2023-04-24T20:24:32.024Z,3.23
2023-04-24T20:26:59.596Z,3.00
2023-04-24T20:29:26.824Z,2.90
2023-04-24T20:31:54.125Z,2.60
2023-04-24T20:34:21.797Z,3.47
2023-04-24T20:36:49.739Z,3.00
2023-04-24T20:39:17.231Z,3.30
2023-04-24T20:41:46.301Z,4.53
2023-04-24T20:44:13.629Z,3.83
2023-04-24T20:46:40.979Z,7.53
2023-04-24T20:49:09.473Z,5.83
2023-04-24T20:51:37.007Z,4.53
2023-04-24T20:54:04.323Z,3.73
2023-04-24T20:56:31.816Z,3.23
2023-04-24T20:58:59.082Z,3.43
2023-04-24T21:01:26.743Z,13.23
2023-04-24T21:03:54.258Z,7.37
2023-04-24T21:06:22.198Z,12.70
2023-04-24T21:08:49.402Z,10.13
2023-04-24T21:11:16.602Z,8.67
2023-04-24T21:13:43.774Z,4.37
2023-04-24T21:16:11.048Z,3.27
2023-04-24T21:18:41.385Z,2.73
2023-04-24T21:21:09.492Z,2.90
2023-04-24T21:23:36.768Z,2.90
2023-04-24T21:26:04.451Z,2.97
2023-04-24T21:28:31.753Z,3.00
2023-04-24T21:30:59.071Z,2.70
2023-04-24T21:33:26.424Z,2.77
2023-04-24T21:35:53.851Z,2.70
2023-04-24T21:38:24.481Z,4.83
2023-04-24T21:40:52.432Z,3.50
2023-04-24T21:43:27.477Z,3.50
2023-04-24T21:45:58.052Z,5.20
2023-04-24T21:48:26.076Z,7.80
2023-04-24T21:50:53.277Z,15.13
2023-04-24T21:53:20.706Z,9.67
2023-04-24T21:55:47.963Z,4.30
2023-04-24T21:58:15.316Z,3.33
2023-04-24T22:00:42.566Z,3.10
2023-04-24T22:03:09.843Z,3.00
2023-04-24T22:05:37.226Z,3.17
2023-04-24T22:08:05.529Z,3.00
2023-04-24T22:10:32.723Z,3.30
2023-04-24T22:13:00.039Z,3.30
2023-04-24T22:15:27.539Z,3.63
2023-04-24T22:17:55.069Z,3.13
2023-04-24T22:20:22.806Z,3.27
2023-04-24T22:22:50.070Z,3.07
2023-04-24T22:25:18.289Z,2.73
2023-04-24T22:27:45.546Z,2.63
2023-04-24T22:30:12.969Z,2.90
2023-04-24T22:32:40.195Z,3.00
2023-04-24T22:35:07.733Z,2.90
2023-04-24T22:37:35.147Z,3.20
2023-04-24T22:40:02.879Z,2.90
2023-04-24T22:42:30.161Z,3.00
2023-04-24T22:44:57.568Z,3.37
2023-04-24T22:47:24.859Z,3.20
2023-04-24T22:49:54.036Z,2.77
2023-04-24T22:52:21.804Z,2.80
2023-04-24T22:54:49.023Z,2.80
2023-04-24T22:57:16.542Z,3.17
2023-04-24T22:59:44.211Z,3.03
2023-04-24T23:02:11.529Z,3.10
2023-04-24T23:04:38.967Z,2.97
2023-04-24T23:07:06.155Z,2.80
2023-04-24T23:09:33.725Z,3.03
2023-04-24T23:12:01.544Z,2.80
2023-04-24T23:14:29.910Z,3.03
2023-04-24T23:16:57.093Z,2.90
2023-04-24T23:19:24.894Z,2.83
2023-04-24T23:21:52.086Z,3.23
2023-04-24T23:24:19.329Z,2.80
2023-04-24T23:26:46.598Z,2.70
2023-04-24T23:29:13.928Z,2.80
2023-04-24T23:31:41.191Z,2.97
2023-04-24T23:34:08.463Z,2.87
2023-04-24T23:36:36.663Z,2.90
2023-04-24T23:39:05.423Z,2.60
2023-04-24T23:41:32.687Z,2.67
2023-04-24T23:44:00.012Z,3.00
2023-04-24T23:46:27.292Z,2.70
2023-04-24T23:48:54.671Z,2.87
2023-04-24T23:51:21.836Z,2.60
2023-04-24T23:53:49.491Z,2.60
2023-04-24T23:56:16.981Z,2.80
2023-04-24T23:58:44.386Z,3.20
